sensor_id;sensor_type;location;lat;lon;timestamp;P1;durP1;ratioP1;P2;durP2;ratioP2
49852;SDS011;35751;48.072;11.688;2023-05-03T00:01:21;8.98;;;6.15;;
49852;SDS011;35751;48.072;11.688;2023-05-03T00:03:49;7.18;;;5.72;;
49852;SDS011;35751;48.072;11.688;2023-05-03T00:06:16;8.82;;;6.82;;
49852;SDS011;35751;48.072;11.688;2023-05-03T00:08:41;12.38;;;8.30;;
49852;SDS011;35751;48.072;11.688;2023-05-03T00:11:07;13.38;;;6.90;;
49852;SDS011;35751;48.072;11.688;2023-05-03T00:13:33;10.90;;;6.70;;
49852;SDS011;35751;48.072;11.688;2023-05-03T00:15:58;8.48;;;6.40;;
49852;SDS011;35751;48.072;11.688;2023-05-03T00:18:24;9.75;;;6.22;;
49852;SDS011;35751;48.072;11.688;2023-05-03T00:20:49;7.45;;;6.10;;
49852;SDS011;35751;48.072;11.688;2023-05-03T00:23:15;10.80;;;6.68;;
49852;SDS011;35751;48.072;11.688;2023-05-03T00:25:40;8.32;;;6.53;;
49852;SDS011;35751;48.072;11.688;2023-05-03T00:28:06;12.65;;;7.07;;
49852;SDS011;35751;48.072;11.688;2023-05-03T00:30:31;13.45;;;8.93;;
49852;SDS011;35751;48.072;11.688;2023-05-03T00:32:56;9.63;;;6.13;;
49852;SDS011;35751;48.072;11.688;2023-05-03T00:35:22;11.10;;;6.38;;
49852;SDS011;35751;48.072;11.688;2023-05-03T00:37:47;9.25;;;6.55;;
49852;SDS011;35751;48.072;11.688;2023-05-03T00:40:12;7.38;;;5.72;;
49852;SDS011;35751;48.072;11.688;2023-05-03T00:42:42;10.38;;;6.82;;
49852;SDS011;35751;48.072;11.688;2023-05-03T00:45:08;11.75;;;7.80;;
49852;SDS011;35751;48.072;11.688;2023-05-03T00:47:33;12.30;;;7.38;;
49852;SDS011;35751;48.072;11.688;2023-05-03T00:50:00;13.38;;;8.63;;
49852;SDS011;35751;48.072;11.688;2023-05-03T00:52:26;16.80;;;9.57;;
49852;SDS011;35751;48.072;11.688;2023-05-03T00:54:51;16.65;;;9.25;;
49852;SDS011;35751;48.072;11.688;2023-05-03T00:57:17;16.70;;;10.80;;
49852;SDS011;35751;48.072;11.688;2023-05-03T00:59:42;14.02;;;9.00;;
49852;SDS011;35751;48.072;11.688;2023-05-03T01:02:08;17.58;;;10.18;;
49852;SDS011;35751;48.072;11.688;2023-05-03T01:04:33;15.82;;;10.23;;
49852;SDS011;35751;48.072;11.688;2023-05-03T01:07:07;16.00;;;9.60;;
49852;SDS011;35751;48.072;11.688;2023-05-03T01:17:40;11.10;;;7.25;;
49852;SDS011;35751;48.072;11.688;2023-05-03T01:20:29;13.60;;;8.60;;
49852;SDS011;35751;48.072;11.688;2023-05-03T01:25:25;14.35;;;8.75;;
49852;SDS011;35751;48.072;11.688;2023-05-03T01:27:51;12.18;;;8.80;;
49852;SDS011;35751;48.072;11.688;2023-05-03T01:30:16;13.77;;;8.13;;
49852;SDS011;35751;48.072;11.688;2023-05-03T01:32:49;10.60;;;7.10;;
49852;SDS011;35751;48.072;11.688;2023-05-03T01:38:05;15.52;;;8.68;;
49852;SDS011;35751;48.072;11.688;2023-05-03T01:40:32;13.68;;;8.70;;
49852;SDS011;35751;48.072;11.688;2023-05-03T01:43:12;9.35;;;7.50;;
49852;SDS011;35751;48.072;11.688;2023-05-03T01:45:41;13.75;;;8.80;;
49852;SDS011;35751;48.072;11.688;2023-05-03T01:48:13;14.75;;;8.35;;
49852;SDS011;35751;48.072;11.688;2023-05-03T01:50:40;12.13;;;9.77;;
49852;SDS011;35751;48.072;11.688;2023-05-03T01:53:06;11.95;;;8.18;;
49852;SDS011;35751;48.072;11.688;2023-05-03T01:55:31;13.48;;;8.52;;
49852;SDS011;35751;48.072;11.688;2023-05-03T01:57:56;12.57;;;8.82;;
49852;SDS011;35751;48.072;11.688;2023-05-03T02:00:22;11.23;;;8.15;;
49852;SDS011;35751;48.072;11.688;2023-05-03T02:02:47;11.43;;;7.65;;
49852;SDS011;35751;48.072;11.688;2023-05-03T02:05:13;10.85;;;8.13;;
49852;SDS011;35751;48.072;11.688;2023-05-03T02:07:38;10.70;;;7.57;;
49852;SDS011;35751;48.072;11.688;2023-05-03T02:10:04;10.43;;;7.65;;
49852;SDS011;35751;48.072;11.688;2023-05-03T02:12:30;11.50;;;7.95;;
49852;SDS011;35751;48.072;11.688;2023-05-03T02:14:55;9.65;;;6.95;;
49852;SDS011;35751;48.072;11.688;2023-05-03T02:17:20;13.02;;;7.97;;
49852;SDS011;35751;48.072;11.688;2023-05-03T02:19:50;10.80;;;7.78;;
49852;SDS011;35751;48.072;11.688;2023-05-03T02:22:21;8.70;;;7.00;;
49852;SDS011;35751;48.072;11.688;2023-05-03T02:24:47;10.63;;;7.28;;
49852;SDS011;35751;48.072;11.688;2023-05-03T02:27:13;13.50;;;7.55;;
49852;SDS011;35751;48.072;11.688;2023-05-03T02:29:39;12.40;;;7.00;;
49852;SDS011;35751;48.072;11.688;2023-05-03T02:32:04;8.68;;;7.18;;
49852;SDS011;35751;48.072;11.688;2023-05-03T02:34:30;10.45;;;6.50;;
49852;SDS011;35751;48.072;11.688;2023-05-03T02:36:56;11.07;;;7.32;;
49852;SDS011;35751;48.072;11.688;2023-05-03T02:39:21;8.27;;;6.75;;
49852;SDS011;35751;48.072;11.688;2023-05-03T02:41:46;9.77;;;7.60;;
49852;SDS011;35751;48.072;11.688;2023-05-03T02:44:12;9.45;;;7.05;;
49852;SDS011;35751;48.072;11.688;2023-05-03T02:46:37;11.82;;;6.97;;
49852;SDS011;35751;48.072;11.688;2023-05-03T02:49:02;12.88;;;8.35;;
49852;SDS011;35751;48.072;11.688;2023-05-03T02:51:28;14.35;;;8.65;;
49852;SDS011;35751;48.072;11.688;2023-05-03T02:53:53;11.88;;;9.65;;
49852;SDS011;35751;48.072;11.688;2023-05-03T02:56:18;13.60;;;9.73;;
49852;SDS011;35751;48.072;11.688;2023-05-03T02:58:44;14.05;;;9.82;;
49852;SDS011;35751;48.072;11.688;2023-05-03T03:01:10;16.88;;;10.10;;
49852;SDS011;35751;48.072;11.688;2023-05-03T03:03:35;17.98;;;10.55;;
49852;SDS011;35751;48.072;11.688;2023-05-03T03:06:01;14.88;;;9.48;;
49852;SDS011;35751;48.072;11.688;2023-05-03T03:08:26;15.32;;;10.68;;
49852;SDS011;35751;48.072;11.688;2023-05-03T03:10:51;19.75;;;12.32;;
49852;SDS011;35751;48.072;11.688;2023-05-03T03:13:17;19.05;;;11.75;;
49852;SDS011;35751;48.072;11.688;2023-05-03T03:15:42;15.85;;;10.73;;
49852;SDS011;35751;48.072;11.688;2023-05-03T03:18:07;18.20;;;11.38;;
49852;SDS011;35751;48.072;11.688;2023-05-03T03:20:33;17.90;;;10.93;;
49852;SDS011;35751;48.072;11.688;2023-05-03T03:22:58;15.32;;;9.48;;
49852;SDS011;35751;48.072;11.688;2023-05-03T03:25:23;17.23;;;10.40;;
49852;SDS011;35751;48.072;11.688;2023-05-03T03:27:49;17.70;;;11.02;;
49852;SDS011;35751;48.072;11.688;2023-05-03T03:30:14;14.93;;;9.52;;
49852;SDS011;35751;48.072;11.688;2023-05-03T03:32:39;14.35;;;8.80;;
49852;SDS011;35751;48.072;11.688;2023-05-03T03:35:05;15.18;;;9.93;;
49852;SDS011;35751;48.072;11.688;2023-05-03T03:37:30;19.05;;;9.70;;
49852;SDS011;35751;48.072;11.688;2023-05-03T03:39:56;11.23;;;8.43;;
49852;SDS011;35751;48.072;11.688;2023-05-03T03:42:21;13.02;;;7.75;;
49852;SDS011;35751;48.072;11.688;2023-05-03T03:44:48;13.43;;;7.63;;
49852;SDS011;35751;48.072;11.688;2023-05-03T03:47:13;12.63;;;8.13;;
49852;SDS011;35751;48.072;11.688;2023-05-03T03:49:38;10.15;;;7.15;;
49852;SDS011;35751;48.072;11.688;2023-05-03T03:52:04;11.98;;;8.38;;
49852;SDS011;35751;48.072;11.688;2023-05-03T03:54:30;10.10;;;7.75;;
49852;SDS011;35751;48.072;11.688;2023-05-03T03:56:56;10.32;;;7.22;;
49852;SDS011;35751;48.072;11.688;2023-05-03T03:59:21;10.23;;;7.38;;
49852;SDS011;35751;48.072;11.688;2023-05-03T04:01:46;8.93;;;7.15;;
49852;SDS011;35751;48.072;11.688;2023-05-03T04:04:12;12.60;;;8.35;;
49852;SDS011;35751;48.072;11.688;2023-05-03T04:06:37;14.05;;;7.35;;
49852;SDS011;35751;48.072;11.688;2023-05-03T04:09:02;11.52;;;8.88;;
49852;SDS011;35751;48.072;11.688;2023-05-03T04:11:28;10.25;;;7.28;;
49852;SDS011;35751;48.072;11.688;2023-05-03T04:13:53;8.57;;;6.85;;
49852;SDS011;35751;48.072;11.688;2023-05-03T04:16:18;10.30;;;7.13;;
49852;SDS011;35751;48.072;11.688;2023-05-03T04:18:44;11.95;;;7.38;;
49852;SDS011;35751;48.072;11.688;2023-05-03T04:21:09;11.00;;;7.93;;
49852;SDS011;35751;48.072;11.688;2023-05-03T04:23:35;10.40;;;7.50;;
49852;SDS011;35751;48.072;11.688;2023-05-03T04:26:00;10.02;;;6.72;;
49852;SDS011;35751;48.072;11.688;2023-05-03T04:28:26;14.38;;;8.20;;
49852;SDS011;35751;48.072;11.688;2023-05-03T04:30:51;11.30;;;8.15;;
49852;SDS011;35751;48.072;11.688;2023-05-03T04:33:18;9.20;;;6.88;;
49852;SDS011;35751;48.072;11.688;2023-05-03T04:35:44;7.78;;;6.32;;
49852;SDS011;35751;48.072;11.688;2023-05-03T04:38:13;11.32;;;7.15;;
49852;SDS011;35751;48.072;11.688;2023-05-03T04:40:38;11.57;;;8.13;;
49852;SDS011;35751;48.072;11.688;2023-05-03T04:43:04;12.85;;;7.10;;
49852;SDS011;35751;48.072;11.688;2023-05-03T04:45:30;14.70;;;9.07;;
49852;SDS011;35751;48.072;11.688;2023-05-03T04:47:55;14.05;;;9.25;;
49852;SDS011;35751;48.072;11.688;2023-05-03T04:50:20;12.68;;;9.32;;
49852;SDS011;35751;48.072;11.688;2023-05-03T04:52:46;10.13;;;8.10;;
49852;SDS011;35751;48.072;11.688;2023-05-03T04:55:11;14.48;;;8.82;;
49852;SDS011;35751;48.072;11.688;2023-05-03T04:57:38;14.60;;;9.77;;
49852;SDS011;35751;48.072;11.688;2023-05-03T05:00:03;13.35;;;8.20;;
49852;SDS011;35751;48.072;11.688;2023-05-03T05:02:34;14.85;;;8.88;;
49852;SDS011;35751;48.072;11.688;2023-05-03T05:05:00;11.57;;;8.52;;
49852;SDS011;35751;48.072;11.688;2023-05-03T05:07:25;14.25;;;8.80;;
49852;SDS011;35751;48.072;11.688;2023-05-03T05:09:51;11.48;;;8.27;;
49852;SDS011;35751;48.072;11.688;2023-05-03T05:12:16;13.57;;;9.57;;
49852;SDS011;35751;48.072;11.688;2023-05-03T05:14:41;11.95;;;8.57;;
49852;SDS011;35751;48.072;11.688;2023-05-03T05:17:07;13.55;;;8.85;;
49852;SDS011;35751;48.072;11.688;2023-05-03T05:19:32;12.50;;;7.72;;
49852;SDS011;35751;48.072;11.688;2023-05-03T05:21:57;10.82;;;8.45;;
49852;SDS011;35751;48.072;11.688;2023-05-03T05:24:23;11.80;;;8.95;;
49852;SDS011;35751;48.072;11.688;2023-05-03T05:26:48;14.77;;;9.05;;
49852;SDS011;35751;48.072;11.688;2023-05-03T05:29:13;12.77;;;9.07;;
49852;SDS011;35751;48.072;11.688;2023-05-03T05:31:39;14.55;;;9.80;;
49852;SDS011;35751;48.072;11.688;2023-05-03T05:34:04;12.98;;;9.63;;
49852;SDS011;35751;48.072;11.688;2023-05-03T05:36:30;14.73;;;10.65;;
49852;SDS011;35751;48.072;11.688;2023-05-03T05:38:55;14.18;;;10.80;;
49852;SDS011;35751;48.072;11.688;2023-05-03T05:41:24;13.60;;;9.38;;
49852;SDS011;35751;48.072;11.688;2023-05-03T05:43:49;16.30;;;10.90;;
49852;SDS011;35751;48.072;11.688;2023-05-03T05:46:15;15.82;;;9.80;;
49852;SDS011;35751;48.072;11.688;2023-05-03T05:48:40;15.50;;;10.77;;
49852;SDS011;35751;48.072;11.688;2023-05-03T05:51:06;11.52;;;8.43;;
49852;SDS011;35751;48.072;11.688;2023-05-03T05:53:31;9.77;;;6.30;;
49852;SDS011;35751;48.072;11.688;2023-05-03T05:55:57;10.20;;;6.90;;
49852;SDS011;35751;48.072;11.688;2023-05-03T05:58:22;9.50;;;6.55;;
49852;SDS011;35751;48.072;11.688;2023-05-03T06:00:47;8.75;;;6.82;;
49852;SDS011;35751;48.072;11.688;2023-05-03T06:03:13;12.70;;;8.60;;
49852;SDS011;35751;48.072;11.688;2023-05-03T06:05:39;11.80;;;9.10;;
49852;SDS011;35751;48.072;11.688;2023-05-03T06:08:05;13.88;;;9.10;;
49852;SDS011;35751;48.072;11.688;2023-05-03T06:10:30;15.02;;;10.45;;
49852;SDS011;35751;48.072;11.688;2023-05-03T06:12:56;16.30;;;10.70;;
49852;SDS011;35751;48.072;11.688;2023-05-03T06:15:21;22.27;;;13.85;;
49852;SDS011;35751;48.072;11.688;2023-05-03T06:17:47;17.33;;;10.32;;
49852;SDS011;35751;48.072;11.688;2023-05-03T06:20:12;18.27;;;10.77;;
49852;SDS011;35751;48.072;11.688;2023-05-03T06:22:37;25.40;;;14.63;;
49852;SDS011;35751;48.072;11.688;2023-05-03T06:25:03;24.10;;;13.75;;
49852;SDS011;35751;48.072;11.688;2023-05-03T06:27:29;20.23;;;12.77;;
49852;SDS011;35751;48.072;11.688;2023-05-03T06:29:55;20.52;;;11.98;;
49852;SDS011;35751;48.072;11.688;2023-05-03T06:32:20;21.13;;;13.60;;
49852;SDS011;35751;48.072;11.688;2023-05-03T06:34:46;22.55;;;13.30;;
49852;SDS011;35751;48.072;11.688;2023-05-03T06:37:12;20.60;;;13.00;;
49852;SDS011;35751;48.072;11.688;2023-05-03T06:39:38;29.02;;;14.18;;
49852;SDS011;35751;48.072;11.688;2023-05-03T06:42:03;24.25;;;14.30;;
49852;SDS011;35751;48.072;11.688;2023-05-03T06:44:28;23.63;;;14.10;;
49852;SDS011;35751;48.072;11.688;2023-05-03T06:46:54;23.35;;;14.57;;
49852;SDS011;35751;48.072;11.688;2023-05-03T06:49:19;33.08;;;15.07;;
49852;SDS011;35751;48.072;11.688;2023-05-03T06:51:46;35.88;;;17.05;;
49852;SDS011;35751;48.072;11.688;2023-05-03T06:54:11;27.45;;;13.65;;
49852;SDS011;35751;48.072;11.688;2023-05-03T06:56:36;40.28;;;16.75;;
49852;SDS011;35751;48.072;11.688;2023-05-03T06:59:02;31.85;;;15.32;;
49852;SDS011;35751;48.072;11.688;2023-05-03T07:01:28;32.28;;;15.32;;
49852;SDS011;35751;48.072;11.688;2023-05-03T07:03:54;31.38;;;15.88;;
49852;SDS011;35751;48.072;11.688;2023-05-03T07:06:20;28.20;;;14.05;;
49852;SDS011;35751;48.072;11.688;2023-05-03T07:08:48;34.95;;;14.77;;
49852;SDS011;35751;48.072;11.688;2023-05-03T07:11:17;35.15;;;14.55;;
49852;SDS011;35751;48.072;11.688;2023-05-03T07:13:49;29.45;;;13.57;;
49852;SDS011;35751;48.072;11.688;2023-05-03T07:16:15;32.97;;;14.32;;
49852;SDS011;35751;48.072;11.688;2023-05-03T07:18:40;29.02;;;15.15;;
49852;SDS011;35751;48.072;11.688;2023-05-03T07:21:06;27.92;;;14.43;;
49852;SDS011;35751;48.072;11.688;2023-05-03T07:23:31;28.63;;;15.05;;
49852;SDS011;35751;48.072;11.688;2023-05-03T07:25:56;25.95;;;13.77;;
49852;SDS011;35751;48.072;11.688;2023-05-03T07:28:23;27.13;;;14.73;;
49852;SDS011;35751;48.072;11.688;2023-05-03T07:30:48;23.83;;;14.50;;
49852;SDS011;35751;48.072;11.688;2023-05-03T07:33:15;22.33;;;13.00;;
49852;SDS011;35751;48.072;11.688;2023-05-03T07:35:40;22.77;;;12.95;;
49852;SDS011;35751;48.072;11.688;2023-05-03T07:38:06;25.55;;;13.77;;
49852;SDS011;35751;48.072;11.688;2023-05-03T07:40:31;24.88;;;12.50;;
49852;SDS011;35751;48.072;11.688;2023-05-03T07:42:59;26.02;;;12.93;;
49852;SDS011;35751;48.072;11.688;2023-05-03T07:45:25;21.27;;;11.73;;
49852;SDS011;35751;48.072;11.688;2023-05-03T07:47:51;23.67;;;12.63;;
49852;SDS011;35751;48.072;11.688;2023-05-03T07:50:17;20.48;;;12.32;;
49852;SDS011;35751;48.072;11.688;2023-05-03T07:52:42;21.38;;;11.63;;
49852;SDS011;35751;48.072;11.688;2023-05-03T07:55:08;22.83;;;12.85;;
49852;SDS011;35751;48.072;11.688;2023-05-03T07:57:33;19.63;;;12.10;;
49852;SDS011;35751;48.072;11.688;2023-05-03T08:00:00;21.55;;;11.68;;
49852;SDS011;35751;48.072;11.688;2023-05-03T08:02:25;20.38;;;11.80;;
49852;SDS011;35751;48.072;11.688;2023-05-03T08:11:35;20.38;;;11.52;;
49852;SDS011;35751;48.072;11.688;2023-05-03T08:14:00;15.80;;;10.25;;
49852;SDS011;35751;48.072;11.688;2023-05-03T08:16:25;17.02;;;9.70;;
49852;SDS011;35751;48.072;11.688;2023-05-03T08:18:51;15.43;;;9.93;;
49852;SDS011;35751;48.072;11.688;2023-05-03T08:21:16;14.85;;;9.85;;
49852;SDS011;35751;48.072;11.688;2023-05-03T08:23:41;17.20;;;9.82;;
49852;SDS011;35751;48.072;11.688;2023-05-03T08:26:07;18.30;;;11.13;;
49852;SDS011;35751;48.072;11.688;2023-05-03T08:28:34;17.58;;;10.82;;
49852;SDS011;35751;48.072;11.688;2023-05-03T08:30:59;18.30;;;11.13;;
49852;SDS011;35751;48.072;11.688;2023-05-03T08:33:27;19.63;;;13.18;;
49852;SDS011;35751;48.072;11.688;2023-05-03T08:35:53;17.88;;;11.07;;
49852;SDS011;35751;48.072;11.688;2023-05-03T08:38:18;20.23;;;13.00;;
49852;SDS011;35751;48.072;11.688;2023-05-03T08:40:44;19.48;;;11.82;;
49852;SDS011;35751;48.072;11.688;2023-05-03T08:43:12;18.08;;;10.93;;
49852;SDS011;35751;48.072;11.688;2023-05-03T08:45:39;22.48;;;13.52;;
49852;SDS011;35751;48.072;11.688;2023-05-03T08:48:05;18.30;;;11.20;;
49852;SDS011;35751;48.072;11.688;2023-05-03T08:50:30;18.70;;;12.40;;
49852;SDS011;35751;48.072;11.688;2023-05-03T08:52:57;24.63;;;18.58;;
49852;SDS011;35751;48.072;11.688;2023-05-03T08:55:23;19.05;;;12.63;;
49852;SDS011;35751;48.072;11.688;2023-05-03T08:57:48;16.98;;;11.50;;
49852;SDS011;35751;48.072;11.688;2023-05-03T09:00:14;18.48;;;12.00;;
49852;SDS011;35751;48.072;11.688;2023-05-03T09:02:39;14.75;;;9.90;;
49852;SDS011;35751;48.072;11.688;2023-05-03T09:05:29;23.10;;;20.27;;
49852;SDS011;35751;48.072;11.688;2023-05-03T09:08:05;80.47;;;72.47;;
49852;SDS011;35751;48.072;11.688;2023-05-03T09:10:33;19.98;;;14.70;;
49852;SDS011;35751;48.072;11.688;2023-05-03T09:13:01;15.48;;;10.88;;
49852;SDS011;35751;48.072;11.688;2023-05-03T09:15:27;16.10;;;10.57;;
49852;SDS011;35751;48.072;11.688;2023-05-03T09:18:10;16.35;;;12.48;;
49852;SDS011;35751;48.072;11.688;2023-05-03T09:20:42;15.43;;;11.52;;
49852;SDS011;35751;48.072;11.688;2023-05-03T09:25:56;14.55;;;10.57;;
49852;SDS011;35751;48.072;11.688;2023-05-03T09:28:22;15.88;;;9.90;;
49852;SDS011;35751;48.072;11.688;2023-05-03T09:30:47;13.55;;;10.07;;
49852;SDS011;35751;48.072;11.688;2023-05-03T09:33:14;13.85;;;8.85;;
49852;SDS011;35751;48.072;11.688;2023-05-03T09:35:55;12.75;;;10.02;;
49852;SDS011;35751;48.072;11.688;2023-05-03T09:38:25;13.23;;;9.77;;
49852;SDS011;35751;48.072;11.688;2023-05-03T09:40:52;14.35;;;9.07;;
49852;SDS011;35751;48.072;11.688;2023-05-03T09:43:17;13.32;;;8.85;;
49852;SDS011;35751;48.072;11.688;2023-05-03T09:45:42;11.00;;;9.25;;
49852;SDS011;35751;48.072;11.688;2023-05-03T09:48:08;11.48;;;8.90;;
49852;SDS011;35751;48.072;11.688;2023-05-03T09:50:34;15.27;;;8.85;;
49852;SDS011;35751;48.072;11.688;2023-05-03T09:53:03;10.93;;;8.38;;
49852;SDS011;35751;48.072;11.688;2023-05-03T09:55:34;11.35;;;7.65;;
49852;SDS011;35751;48.072;11.688;2023-05-03T09:58:00;10.55;;;7.80;;
49852;SDS011;35751;48.072;11.688;2023-05-03T10:00:31;9.07;;;7.25;;
49852;SDS011;35751;48.072;11.688;2023-05-03T10:03:07;10.48;;;8.15;;
49852;SDS011;35751;48.072;11.688;2023-05-03T10:05:36;10.07;;;8.45;;
49852;SDS011;35751;48.072;11.688;2023-05-03T10:08:08;10.80;;;9.05;;
49852;SDS011;35751;48.072;11.688;2023-05-03T10:10:35;12.77;;;8.80;;
49852;SDS011;35751;48.072;11.688;2023-05-03T10:13:01;8.98;;;8.02;;
49852;SDS011;35751;48.072;11.688;2023-05-03T10:15:27;8.57;;;7.15;;
49852;SDS011;35751;48.072;11.688;2023-05-03T10:17:53;9.38;;;7.88;;
49852;SDS011;35751;48.072;11.688;2023-05-03T10:20:30;8.93;;;7.15;;
49852;SDS011;35751;48.072;11.688;2023-05-03T10:23:09;8.38;;;6.55;;
49852;SDS011;35751;48.072;11.688;2023-05-03T10:25:36;9.93;;;7.43;;
49852;SDS011;35751;48.072;11.688;2023-05-03T10:28:03;11.90;;;8.48;;
49852;SDS011;35751;48.072;11.688;2023-05-03T10:32:57;9.15;;;7.85;;
49852;SDS011;35751;48.072;11.688;2023-05-03T10:35:26;11.60;;;8.95;;
49852;SDS011;35751;48.072;11.688;2023-05-03T10:37:53;11.38;;;8.60;;
49852;SDS011;35751;48.072;11.688;2023-05-03T10:40:20;11.13;;;8.32;;
49852;SDS011;35751;48.072;11.688;2023-05-03T10:42:55;11.35;;;8.40;;
49852;SDS011;35751;48.072;11.688;2023-05-03T10:45:24;12.40;;;9.60;;
49852;SDS011;35751;48.072;11.688;2023-05-03T10:50:35;13.63;;;10.77;;
49852;SDS011;35751;48.072;11.688;2023-05-03T10:53:01;16.48;;;11.73;;
49852;SDS011;35751;48.072;11.688;2023-05-03T10:55:26;16.33;;;11.80;;
49852;SDS011;35751;48.072;11.688;2023-05-03T10:57:53;15.40;;;11.45;;
49852;SDS011;35751;48.072;11.688;2023-05-03T11:00:37;16.80;;;11.95;;
49852;SDS011;35751;48.072;11.688;2023-05-03T11:12:20;17.88;;;11.82;;
49852;SDS011;35751;48.072;11.688;2023-05-03T11:14:45;17.45;;;12.18;;
49852;SDS011;35751;48.072;11.688;2023-05-03T11:17:10;19.55;;;13.02;;
49852;SDS011;35751;48.072;11.688;2023-05-03T11:19:36;26.15;;;14.90;;
49852;SDS011;35751;48.072;11.688;2023-05-03T11:22:03;15.80;;;10.88;;
49852;SDS011;35751;48.072;11.688;2023-05-03T11:24:28;15.95;;;11.27;;
49852;SDS011;35751;48.072;11.688;2023-05-03T11:26:54;19.02;;;12.75;;
49852;SDS011;35751;48.072;11.688;2023-05-03T11:29:19;14.93;;;11.68;;
49852;SDS011;35751;48.072;11.688;2023-05-03T11:31:45;17.52;;;12.15;;
49852;SDS011;35751;48.072;11.688;2023-05-03T11:34:11;17.27;;;11.52;;
49852;SDS011;35751;48.072;11.688;2023-05-03T11:36:37;16.92;;;12.98;;
49852;SDS011;35751;48.072;11.688;2023-05-03T11:39:02;19.38;;;13.90;;
49852;SDS011;35751;48.072;11.688;2023-05-03T11:41:29;17.65;;;12.85;;
49852;SDS011;35751;48.072;11.688;2023-05-03T11:43:55;14.25;;;11.45;;
49852;SDS011;35751;48.072;11.688;2023-05-03T11:46:21;16.02;;;11.48;;
49852;SDS011;35751;48.072;11.688;2023-05-03T11:48:47;16.45;;;12.35;;
49852;SDS011;35751;48.072;11.688;2023-05-03T11:51:13;16.58;;;11.90;;
49852;SDS011;35751;48.072;11.688;2023-05-03T11:53:39;15.70;;;10.15;;
49852;SDS011;35751;48.072;11.688;2023-05-03T11:56:06;12.57;;;9.65;;
49852;SDS011;35751;48.072;11.688;2023-05-03T11:58:33;12.45;;;9.07;;
49852;SDS011;35751;48.072;11.688;2023-05-03T12:00:58;12.07;;;9.43;;
49852;SDS011;35751;48.072;11.688;2023-05-03T12:03:25;12.13;;;9.40;;
49852;SDS011;35751;48.072;11.688;2023-05-03T12:05:52;13.55;;;9.55;;
49852;SDS011;35751;48.072;11.688;2023-05-03T12:08:18;11.70;;;9.15;;
49852;SDS011;35751;48.072;11.688;2023-05-03T12:10:45;13.25;;;9.35;;
49852;SDS011;35751;48.072;11.688;2023-05-03T12:13:11;11.93;;;9.32;;
49852;SDS011;35751;48.072;11.688;2023-05-03T12:15:37;13.77;;;10.82;;
49852;SDS011;35751;48.072;11.688;2023-05-03T12:18:07;14.00;;;9.73;;
49852;SDS011;35751;48.072;11.688;2023-05-03T12:20:33;14.63;;;10.25;;
49852;SDS011;35751;48.072;11.688;2023-05-03T12:23:00;16.40;;;10.75;;
49852;SDS011;35751;48.072;11.688;2023-05-03T12:25:32;14.73;;;10.93;;
49852;SDS011;35751;48.072;11.688;2023-05-03T12:27:58;18.77;;;13.32;;
49852;SDS011;35751;48.072;11.688;2023-05-03T12:30:25;15.00;;;11.73;;
49852;SDS011;35751;48.072;11.688;2023-05-03T12:32:50;16.58;;;11.40;;
49852;SDS011;35751;48.072;11.688;2023-05-03T12:35:17;10.45;;;7.93;;
49852;SDS011;35751;48.072;11.688;2023-05-03T12:37:43;6.78;;;5.45;;
49852;SDS011;35751;48.072;11.688;2023-05-03T12:40:08;6.95;;;4.93;;
49852;SDS011;35751;48.072;11.688;2023-05-03T12:42:34;6.57;;;5.05;;
49852;SDS011;35751;48.072;11.688;2023-05-03T12:45:00;7.82;;;5.50;;
49852;SDS011;35751;48.072;11.688;2023-05-03T12:47:25;8.02;;;5.55;;
49852;SDS011;35751;48.072;11.688;2023-05-03T12:49:51;12.07;;;8.88;;
49852;SDS011;35751;48.072;11.688;2023-05-03T12:52:16;13.88;;;11.13;;
49852;SDS011;35751;48.072;11.688;2023-05-03T12:54:42;13.68;;;9.98;;
49852;SDS011;35751;48.072;11.688;2023-05-03T12:57:08;14.98;;;9.63;;
49852;SDS011;35751;48.072;11.688;2023-05-03T12:59:34;8.13;;;7.05;;
49852;SDS011;35751;48.072;11.688;2023-05-03T13:02:00;7.32;;;6.57;;
49852;SDS011;35751;48.072;11.688;2023-05-03T13:04:25;10.35;;;7.75;;
49852;SDS011;35751;48.072;11.688;2023-05-03T13:06:51;11.35;;;8.02;;
49852;SDS011;35751;48.072;11.688;2023-05-03T13:09:17;12.07;;;8.05;;
49852;SDS011;35751;48.072;11.688;2023-05-03T13:11:43;11.45;;;8.55;;
49852;SDS011;35751;48.072;11.688;2023-05-03T13:14:08;10.93;;;8.73;;
49852;SDS011;35751;48.072;11.688;2023-05-03T13:16:33;10.68;;;7.78;;
49852;SDS011;35751;48.072;11.688;2023-05-03T13:19:02;6.43;;;5.63;;
49852;SDS011;35751;48.072;11.688;2023-05-03T13:21:27;5.93;;;4.93;;
49852;SDS011;35751;48.072;11.688;2023-05-03T13:23:54;6.47;;;5.32;;
49852;SDS011;35751;48.072;11.688;2023-05-03T13:26:19;5.55;;;4.95;;
49852;SDS011;35751;48.072;11.688;2023-05-03T13:28:45;4.20;;;3.80;;
49852;SDS011;35751;48.072;11.688;2023-05-03T13:31:10;4.10;;;3.70;;
49852;SDS011;35751;48.072;11.688;2023-05-03T13:33:35;4.93;;;4.43;;
49852;SDS011;35751;48.072;11.688;2023-05-03T13:36:02;4.45;;;4.05;;
49852;SDS011;35751;48.072;11.688;2023-05-03T13:38:28;4.88;;;4.38;;
49852;SDS011;35751;48.072;11.688;2023-05-03T13:40:53;4.57;;;4.00;;
49852;SDS011;35751;48.072;11.688;2023-05-03T13:43:19;5.43;;;4.28;;
49852;SDS011;35751;48.072;11.688;2023-05-03T13:45:44;6.15;;;4.95;;
49852;SDS011;35751;48.072;11.688;2023-05-03T13:48:09;5.43;;;4.93;;
49852;SDS011;35751;48.072;11.688;2023-05-03T13:50:35;6.57;;;5.65;;
49852;SDS011;35751;48.072;11.688;2023-05-03T13:53:00;8.45;;;6.20;;
49852;SDS011;35751;48.072;11.688;2023-05-03T13:55:25;7.15;;;6.43;;
49852;SDS011;35751;48.072;11.688;2023-05-03T13:57:51;5.78;;;4.90;;
49852;SDS011;35751;48.072;11.688;2023-05-03T14:00:16;6.05;;;4.78;;
49852;SDS011;35751;48.072;11.688;2023-05-03T14:02:44;5.45;;;4.63;;
49852;SDS011;35751;48.072;11.688;2023-05-03T14:05:10;6.07;;;5.35;;
49852;SDS011;35751;48.072;11.688;2023-05-03T14:07:35;7.53;;;6.35;;
49852;SDS011;35751;48.072;11.688;2023-05-03T14:10:02;8.35;;;6.65;;
49852;SDS011;35751;48.072;11.688;2023-05-03T14:12:27;6.85;;;5.85;;
49852;SDS011;35751;48.072;11.688;2023-05-03T14:14:53;6.95;;;5.53;;
49852;SDS011;35751;48.072;11.688;2023-05-03T14:17:18;7.95;;;5.93;;
49852;SDS011;35751;48.072;11.688;2023-05-03T14:19:43;6.18;;;5.22;;
49852;SDS011;35751;48.072;11.688;2023-05-03T14:22:11;8.02;;;6.82;;
49852;SDS011;35751;48.072;11.688;2023-05-03T14:24:36;7.15;;;6.45;;
49852;SDS011;35751;48.072;11.688;2023-05-03T14:27:02;7.85;;;6.72;;
49852;SDS011;35751;48.072;11.688;2023-05-03T14:29:27;7.43;;;6.55;;
49852;SDS011;35751;48.072;11.688;2023-05-03T14:31:53;7.28;;;6.50;;
49852;SDS011;35751;48.072;11.688;2023-05-03T14:34:19;7.07;;;6.38;;
49852;SDS011;35751;48.072;11.688;2023-05-03T14:36:45;6.40;;;5.72;;
49852;SDS011;35751;48.072;11.688;2023-05-03T14:39:10;7.38;;;5.97;;
49852;SDS011;35751;48.072;11.688;2023-05-03T14:41:38;7.65;;;6.00;;
49852;SDS011;35751;48.072;11.688;2023-05-03T14:44:03;10.25;;;8.20;;
49852;SDS011;35751;48.072;11.688;2023-05-03T14:46:30;8.23;;;6.30;;
49852;SDS011;35751;48.072;11.688;2023-05-03T14:48:56;6.30;;;5.38;;
49852;SDS011;35751;48.072;11.688;2023-05-03T14:51:21;7.95;;;5.82;;
49852;SDS011;35751;48.072;11.688;2023-05-03T14:53:47;8.60;;;5.20;;